Yue Chi — VRBS2 — position and weather

sailwx.info

Track history (hours):
 
Tides and Currents Weather Stations Pressure Air Temp Water Temp Dewpoint Dewpoint Depression Visibility Wind Speed Wind Dir Waves Ship Positions

Yue Chi

Last reported at 2017-Dec-16 00:58 UTC. Time now 2017-Dec-16 01:12 UTC.
Position N 35°27' E 139°45'.

Length 187 m; draft 10.9 m.

Type: Ship (hazmat cat B). MMSI: 477105700.

Date/timePositionNaut miles runAvg speedWind from/ knotsBaromVisibWave heightAir tempDewpointWater temp
2017-Dec-16 00:58N 35°27' E 139°45'0 0.1
2017-Dec-16 00:28N 35°27' E 139°45'1 1.8
2017-Dec-16 00:01N 35°26' E 139°45'510.5
2017-Dec-15 23:31N 35°21' E 139°45'510.5
2017-Dec-15 23:00N 35°16' E 139°46'510.8
2017-Dec-15 22:31N 35°11' E 139°47'4 7.3
2017-Dec-15 22:01N 35°07' E 139°45'5 9.1
2017-Dec-15 21:31N 35°03' E 139°43'4 8.3
2017-Dec-15 21:01N 35°01' E 139°39'3 5.1
2017-Dec-15 20:30N 34°59' E 139°36'2 4.6
2017-Dec-15 20:00N 34°58' E 139°33'2711.4
2017-Dec-15 17:40N 34°40' E 139°10'212.0
2017-Dec-15 17:28N 34°38' E 139°08'612.6
2017-Dec-15 17:00N 34°34' E 139°04'612.5
2017-Dec-15 16:30N 34°29' E 138°58'  
Track history (hours):
 
Tides and Currents Weather Stations Pressure Air Temp Water Temp Dewpoint Dewpoint Depression Visibility Wind Speed Wind Dir Waves Ship Positions

Yue Chi

Last reported at 2017-Dec-16 00:58 UTC. Time now 2017-Dec-16 01:12 UTC.
Position N 35°27' E 139°45'.

Length 187 m; draft 10.9 m.

Type: Ship (hazmat cat B). MMSI: 477105700.

Date/timePositionNaut miles runAvg speedWind from/ knotsBaromVisibWave heightAir tempDewpointWater temp
2017-Dec-16 00:58N 35°27' E 139°45'0 0.1
2017-Dec-16 00:28N 35°27' E 139°45'1 1.8
2017-Dec-16 00:01N 35°26' E 139°45'510.5
2017-Dec-15 23:31N 35°21' E 139°45'510.5
2017-Dec-15 23:00N 35°16' E 139°46'510.8
2017-Dec-15 22:31N 35°11' E 139°47'4 7.3
2017-Dec-15 22:01N 35°07' E 139°45'5 9.1
2017-Dec-15 21:31N 35°03' E 139°43'4 8.3
2017-Dec-15 21:01N 35°01' E 139°39'3 5.1
2017-Dec-15 20:30N 34°59' E 139°36'2 4.6
2017-Dec-15 20:00N 34°58' E 139°33'2711.4
2017-Dec-15 17:40N 34°40' E 139°10'212.0
2017-Dec-15 17:28N 34°38' E 139°08'612.6
2017-Dec-15 17:00N 34°34' E 139°04'612.5
2017-Dec-15 16:30N 34°29' E 138°58'  

Dump ship's entire track history